This is the latest recevied weather packets stored in our database for station/object KJ4W. If no packets are shown the sender has not sent any weather packets the latest 10 day(s).
| Time | Temp. | Humidity | Pressure | Rain* | Wind** | Luminosity | Snow |
|---|---|---|---|---|---|---|---|
| 1777815824 | 11.11° C | 80% | 1022.1 hPa | 0 mm | - | - | - |
| 1777814923 | 10° C | 85% | 1022 hPa | 0 mm | - | - | - |
| 1777814024 | 9.44° C | 90% | 1022 hPa | 0 mm | - | - | - |
| 1777813124 | 8.33° C | 96% | 1021.9 hPa | 0 mm | - | - | - |
| 1777812224 | 7.78° C | 98% | 1021.8 hPa | 0 mm | - | - | - |
| 1777811323 | 6.67° C | 99% | 1021.7 hPa | 0 mm | - | - | - |
| 1777810422 | 5.56° C | 99% | 1021.6 hPa | 0 mm | - | - | - |
| 1777809524 | 4.44° C | 98% | 1021.6 hPa | 0 mm | - | - | - |
| 1777808623 | 3.89° C | 98% | 1021.5 hPa | 0 mm | - | - | - |
| 1777807723 | 3.33° C | 97% | 1021.3 hPa | 0 mm | - | - | - |
| 1777806825 | 3.33° C | 97% | 1021.3 hPa | 0 mm | - | - | - |
| 1777805924 | 3.33° C | 97% | 1021.2 hPa | 0 mm | - | - | - |
| 1777805026 | 3.33° C | 97% | 1021.1 hPa | 0 mm | - | - | - |
| 1777804124 | 3.33° C | 96% | 1021 hPa | 0 mm | - | - | - |
| 1777803223 | 3.33° C | 96% | 1020.8 hPa | 0 mm | - | - | - |
| 1777802322 | 3.33° C | 96% | 1020.7 hPa | 0 mm | - | - | - |
| 1777801423 | 3.33° C | 96% | 1020.7 hPa | 0 mm | - | - | - |
| 1777800524 | 3.33° C | 96% | 1020.6 hPa | 0 mm | - | - | - |
| 1777799622 | 3.33° C | 96% | 1020.7 hPa | 0 mm | - | - | - |
| 1777798722 | 3.33° C | 96% | 1020.5 hPa | 0 mm | - | - | - |
| 1777797827 | 3.89° C | 95% | 1020.6 hPa | 0 mm | - | - | - |
| 1777796923 | 3.89° C | 95% | 1020.6 hPa | 0 mm | - | - | - |
| 1777796022 | 3.89° C | 96% | 1020.6 hPa | 0 mm | - | - | - |
| 1777795122 | 3.89° C | 95% | 1020.5 hPa | 0 mm | - | - | - |
| 1777794224 | 3.89° C | 95% | 1020.5 hPa | 0 mm | - | - | - |
* Rain latest hour (hover to see other rain measurements)
** Current wind speed in m/s (hover to see current wind gust speed)